createdAt,value
2022-11-27T00:01:25.914Z,6.35
2022-11-27T00:03:53.282Z,7.45
2022-11-27T00:06:20.575Z,6.75
2022-11-27T00:08:47.375Z,6.70
2022-11-27T00:11:18.287Z,6.85
2022-11-27T00:13:44.924Z,5.65
2022-11-27T00:16:11.866Z,7.15
2022-11-27T00:18:38.213Z,7.53
2022-11-27T00:21:10.049Z,6.45
2022-11-27T00:23:36.389Z,6.43
2022-11-27T00:26:03.027Z,6.60
2022-11-27T00:28:29.781Z,6.30
2022-11-27T00:31:03.110Z,6.45
2022-11-27T00:33:29.457Z,6.78
2022-11-27T00:35:55.782Z,7.53
2022-11-27T00:38:22.303Z,7.03
2022-11-27T00:40:48.681Z,6.50
2022-11-27T00:43:15.029Z,6.10
2022-11-27T00:45:41.346Z,7.00
2022-11-27T00:48:07.682Z,6.43
2022-11-27T00:50:34.081Z,5.85
2022-11-27T00:53:00.543Z,6.88
2022-11-27T00:55:26.981Z,5.97
2022-11-27T00:57:53.328Z,6.68
2022-11-27T01:00:19.808Z,6.97
2022-11-27T01:02:46.156Z,7.13
2022-11-27T01:05:12.467Z,8.13
2022-11-27T01:07:38.867Z,5.90
2022-11-27T01:10:05.574Z,5.80
2022-11-27T01:12:31.902Z,6.95
2022-11-27T01:14:58.377Z,6.50
2022-11-27T01:17:24.728Z,6.05
2022-11-27T01:19:51.090Z,5.65
2022-11-27T01:22:17.361Z,6.05
2022-11-27T01:24:43.704Z,6.55
2022-11-27T01:27:10.107Z,6.22
2022-11-27T01:29:36.373Z,5.82
2022-11-27T01:32:02.688Z,6.85
2022-11-27T01:34:28.964Z,6.15
2022-11-27T01:36:55.212Z,6.03
2022-11-27T01:39:23.209Z,5.60
2022-11-27T01:41:49.779Z,6.53
2022-11-27T01:44:25.396Z,6.25
2022-11-27T01:47:00.418Z,5.53
2022-11-27T01:49:32.048Z,7.95
2022-11-27T01:51:58.408Z,6.00
2022-11-27T01:54:26.525Z,6.47
2022-11-27T01:56:56.173Z,6.43
2022-11-27T01:59:22.529Z,6.75
2022-11-27T02:01:48.853Z,6.03
2022-11-27T02:04:15.224Z,6.47
2022-11-27T02:06:41.566Z,7.38
2022-11-27T02:09:07.840Z,6.10
2022-11-27T02:11:54.451Z,6.20
2022-11-27T02:14:44.787Z,6.88
2022-11-27T02:17:27.694Z,5.97
2022-11-27T02:20:06.224Z,5.78
2022-11-27T02:22:38.958Z,5.47
2022-11-27T02:27:51.982Z,6.07
2022-11-27T02:30:19.014Z,6.30
2022-11-27T02:32:57.017Z,7.82
2022-11-27T02:35:28.094Z,6.32
2022-11-27T02:37:59.708Z,7.13
2022-11-27T02:40:31.977Z,6.35
2022-11-27T02:43:09.214Z,4.88
2022-11-27T02:45:38.594Z,5.57
2022-11-27T02:48:05.869Z,5.47
2022-11-27T02:50:34.501Z,5.55
2022-11-27T02:53:03.482Z,5.82
2022-11-27T02:55:32.646Z,6.22
2022-11-27T02:57:59.804Z,5.78
2022-11-27T03:00:26.200Z,5.60
2022-11-27T03:02:54.789Z,6.22
2022-11-27T03:05:22.968Z,5.35
2022-11-27T03:07:53.992Z,5.90
2022-11-27T03:10:31.201Z,5.20
2022-11-27T03:12:58.608Z,5.43
2022-11-27T03:15:25.721Z,5.20
2022-11-27T03:17:54.778Z,5.22
2022-11-27T03:20:23.321Z,6.00
2022-11-27T03:22:49.783Z,5.88
2022-11-27T03:25:16.533Z,6.10
2022-11-27T03:27:55.713Z,6.22
2022-11-27T03:30:22.145Z,5.47
2022-11-27T03:32:48.428Z,4.93
2022-11-27T03:35:16.149Z,5.90
2022-11-27T03:37:42.490Z,5.53
2022-11-27T03:40:09.969Z,5.70
2022-11-27T03:42:54.937Z,6.18
2022-11-27T03:45:31.953Z,6.68
2022-11-27T03:48:17.257Z,5.97
2022-11-27T03:50:43.558Z,6.00
2022-11-27T03:53:19.286Z,5.80
2022-11-27T03:55:45.579Z,5.95
2022-11-27T03:58:14.871Z,6.20
2022-11-27T04:00:42.681Z,5.53
2022-11-27T04:03:10.771Z,6.60
2022-11-27T04:05:37.124Z,5.30
2022-11-27T04:08:03.520Z,5.40
2022-11-27T04:10:29.931Z,5.50
2022-11-27T04:12:56.278Z,6.90
2022-11-27T04:15:22.863Z,5.93
2022-11-27T04:17:49.144Z,4.38
2022-11-27T04:20:15.504Z,5.90
2022-11-27T04:22:41.836Z,5.22
2022-11-27T04:25:08.360Z,5.40
2022-11-27T04:27:34.637Z,4.75
2022-11-27T04:30:00.909Z,6.00
2022-11-27T04:32:27.239Z,4.85
2022-11-27T04:34:53.508Z,5.65
2022-11-27T04:37:19.830Z,5.55
2022-11-27T04:39:46.162Z,5.95
2022-11-27T04:42:12.442Z,5.10
2022-11-27T04:44:39.198Z,5.38
2022-11-27T04:47:05.765Z,4.32
2022-11-27T04:49:32.158Z,5.43
2022-11-27T04:51:58.502Z,6.57
2022-11-27T04:54:24.830Z,5.60
2022-11-27T04:56:51.105Z,4.32
2022-11-27T04:59:17.508Z,5.13
2022-11-27T05:01:43.794Z,4.45
2022-11-27T05:04:10.121Z,4.20
2022-11-27T05:06:36.411Z,4.70
2022-11-27T05:09:02.933Z,3.83
2022-11-27T05:11:30.026Z,5.05
2022-11-27T05:14:14.814Z,4.85
2022-11-27T05:16:41.693Z,4.60
2022-11-27T05:19:09.541Z,4.63
2022-11-27T05:21:36.204Z,3.70
2022-11-27T05:24:02.777Z,4.60
2022-11-27T05:26:29.150Z,4.55
2022-11-27T05:28:55.494Z,4.75
2022-11-27T05:31:21.812Z,4.97
2022-11-27T05:33:48.241Z,4.68
2022-11-27T05:36:14.544Z,4.32
2022-11-27T05:38:41.129Z,4.20
2022-11-27T05:41:07.469Z,5.38
2022-11-27T05:43:33.788Z,4.20
2022-11-27T05:46:04.020Z,4.28
2022-11-27T05:48:30.316Z,3.92
2022-11-27T05:50:57.130Z,4.15
2022-11-27T05:53:23.472Z,3.85
2022-11-27T05:55:49.821Z,4.50
2022-11-27T05:58:16.154Z,4.25
2022-11-27T06:00:42.484Z,4.38
2022-11-27T06:03:08.847Z,4.20
2022-11-27T06:05:38.548Z,3.67
2022-11-27T06:08:04.896Z,4.22
2022-11-27T06:10:31.248Z,4.45
2022-11-27T06:12:57.604Z,3.88
2022-11-27T06:15:23.897Z,3.78
2022-11-27T06:17:50.313Z,4.13
2022-11-27T06:20:16.958Z,4.88
2022-11-27T06:22:43.291Z,3.90
2022-11-27T06:25:09.787Z,4.20
2022-11-27T06:27:36.309Z,3.88
2022-11-27T06:30:04.037Z,4.20
2022-11-27T06:32:30.421Z,4.18
2022-11-27T06:34:56.696Z,4.60
2022-11-27T06:37:23.264Z,5.07
2022-11-27T06:39:49.784Z,3.95
2022-11-27T06:42:16.107Z,4.10
2022-11-27T06:44:42.584Z,3.90
2022-11-27T06:47:09.211Z,4.10
2022-11-27T06:49:35.537Z,4.30
2022-11-27T06:52:02.037Z,4.30
2022-11-27T06:54:28.389Z,4.13
2022-11-27T06:56:54.725Z,3.80
2022-11-27T06:59:21.231Z,4.78
2022-11-27T07:01:47.623Z,4.55
2022-11-27T07:04:15.145Z,4.13
2022-11-27T07:06:42.252Z,3.85
2022-11-27T07:09:09.782Z,4.55
2022-11-27T07:11:36.126Z,4.72
2022-11-27T07:14:04.107Z,4.13
2022-11-27T07:16:31.827Z,5.20
2022-11-27T07:18:59.607Z,4.25
2022-11-27T07:21:26.350Z,4.60
2022-11-27T07:23:52.695Z,4.30
2022-11-27T07:26:20.619Z,4.38
2022-11-27T07:28:47.384Z,3.97
2022-11-27T07:31:15.269Z,3.92
2022-11-27T07:33:41.650Z,4.07
2022-11-27T07:36:10.725Z,4.43
2022-11-27T07:38:37.010Z,4.15
2022-11-27T07:41:04.108Z,4.10
2022-11-27T07:43:31.197Z,4.07
2022-11-27T07:45:57.639Z,4.63
2022-11-27T07:48:24.557Z,5.47
2022-11-27T07:50:50.969Z,3.85
2022-11-27T07:53:17.347Z,4.45
2022-11-27T07:55:43.682Z,3.90
2022-11-27T07:58:09.949Z,3.92
2022-11-27T08:00:36.373Z,4.18
2022-11-27T08:03:03.083Z,5.15
2022-11-27T08:05:29.748Z,4.85
2022-11-27T08:07:56.216Z,4.82
2022-11-27T08:10:22.527Z,4.32
2022-11-27T08:12:48.848Z,4.82
2022-11-27T08:15:15.113Z,4.68
2022-11-27T08:17:41.454Z,4.63
2022-11-27T08:20:07.876Z,4.40
2022-11-27T08:22:34.209Z,5.20
2022-11-27T08:25:00.581Z,4.93
2022-11-27T08:27:27.060Z,4.85
2022-11-27T08:29:53.469Z,4.78
2022-11-27T08:32:19.739Z,4.82
2022-11-27T08:34:46.041Z,4.95
2022-11-27T08:37:12.365Z,4.13
2022-11-27T08:39:38.700Z,5.30
2022-11-27T08:42:04.995Z,4.63
2022-11-27T08:44:31.293Z,4.80
2022-11-27T08:46:57.626Z,4.88
2022-11-27T08:49:23.892Z,5.05
2022-11-27T08:51:50.201Z,5.03
2022-11-27T08:54:16.535Z,4.40
2022-11-27T08:56:42.964Z,4.90
2022-11-27T08:59:09.224Z,5.25
2022-11-27T09:01:35.691Z,5.50
2022-11-27T09:04:02.178Z,5.05
2022-11-27T09:06:29.373Z,5.90
2022-11-27T09:08:56.492Z,5.22
2022-11-27T09:11:24.205Z,6.35
2022-11-27T09:13:50.787Z,5.50
2022-11-27T09:16:18.532Z,4.97
2022-11-27T09:18:45.497Z,5.70
2022-11-27T09:21:12.413Z,5.70
2022-11-27T09:23:39.505Z,5.18
2022-11-27T09:26:07.379Z,7.03
2022-11-27T09:28:34.910Z,6.70
2022-11-27T09:31:02.176Z,6.53
2022-11-27T09:33:29.211Z,5.78
2022-11-27T09:35:55.486Z,5.97
2022-11-27T09:38:21.985Z,6.35
2022-11-27T09:40:49.406Z,5.68
2022-11-27T09:43:16.000Z,6.10
2022-11-27T09:45:45.394Z,6.20
2022-11-27T09:48:15.191Z,6.43
2022-11-27T09:50:49.989Z,6.88
2022-11-27T09:53:22.933Z,5.85
2022-11-27T09:55:49.934Z,6.80
2022-11-27T09:58:18.540Z,6.55
2022-11-27T10:00:45.328Z,5.50
2022-11-27T10:03:15.441Z,5.80
2022-11-27T10:05:47.806Z,5.65
2022-11-27T10:08:31.670Z,5.63
2022-11-27T10:10:58.036Z,6.65
2022-11-27T10:13:30.258Z,7.43
2022-11-27T10:15:58.592Z,6.82
2022-11-27T10:18:43.641Z,6.07
2022-11-27T10:21:15.016Z,6.72
2022-11-27T10:23:41.706Z,6.40
2022-11-27T10:26:13.730Z,6.75
2022-11-27T10:29:00.129Z,6.60
2022-11-27T10:31:26.532Z,6.70
2022-11-27T10:33:54.591Z,6.28
2022-11-27T10:36:41.178Z,5.70
2022-11-27T10:39:14.233Z,5.70
2022-11-27T10:41:57.017Z,6.63
2022-11-27T10:44:29.328Z,7.53
2022-11-27T10:47:01.248Z,6.32
2022-11-27T10:49:27.649Z,6.50
2022-11-27T10:51:54.044Z,6.65
2022-11-27T10:54:26.808Z,6.03
2022-11-27T10:59:22.348Z,6.10
2022-11-27T11:01:50.693Z,6.32
2022-11-27T11:04:38.637Z,7.05
2022-11-27T11:07:23.087Z,6.85
2022-11-27T11:09:49.635Z,6.97
2022-11-27T11:12:21.128Z,7.13
2022-11-27T11:14:51.896Z,6.70
2022-11-27T11:17:18.593Z,6.72
2022-11-27T11:19:45.962Z,6.82
2022-11-27T11:22:14.778Z,7.25
2022-11-27T11:24:45.629Z,6.45
2022-11-27T11:27:17.810Z,6.68
2022-11-27T11:29:44.084Z,7.13
2022-11-27T11:32:10.469Z,6.32
2022-11-27T11:34:42.064Z,6.43
2022-11-27T11:37:18.187Z,7.67
2022-11-27T11:39:45.616Z,6.22
2022-11-27T11:42:22.922Z,6.57
2022-11-27T11:44:54.220Z,6.60
2022-11-27T11:47:23.292Z,7.07
2022-11-27T11:49:50.827Z,6.50
2022-11-27T11:52:22.967Z,7.65
2022-11-27T11:54:59.833Z,7.00
2022-11-27T11:57:40.930Z,6.85
2022-11-27T12:00:12.896Z,6.68
2022-11-27T12:02:40.643Z,7.43
2022-11-27T12:05:09.866Z,7.40
2022-11-27T12:07:52.070Z,7.05
2022-11-27T12:10:24.647Z,7.18
2022-11-27T12:13:09.505Z,7.47
2022-11-27T12:15:44.008Z,6.28
2022-11-27T12:18:18.356Z,6.57
2022-11-27T12:20:56.822Z,6.30
2022-11-27T12:23:25.888Z,6.85
2022-11-27T12:25:52.189Z,6.00
2022-11-27T12:28:28.610Z,7.03
2022-11-27T12:31:01.159Z,6.70
2022-11-27T12:33:44.481Z,6.78
2022-11-27T12:36:10.794Z,6.30
2022-11-27T12:38:45.972Z,6.50
2022-11-27T12:41:23.525Z,6.68
2022-11-27T12:43:52.088Z,6.65
2022-11-27T12:46:22.231Z,7.00
2022-11-27T12:48:51.296Z,6.38
2022-11-27T12:51:17.625Z,6.78
2022-11-27T12:53:47.501Z,6.85
2022-11-27T12:56:25.204Z,6.40
2022-11-27T12:58:54.677Z,7.05
2022-11-27T13:01:42.530Z,7.28
2022-11-27T13:04:21.352Z,7.30
2022-11-27T13:07:03.033Z,6.38
2022-11-27T13:09:49.623Z,6.72
2022-11-27T13:12:45.173Z,6.55
2022-11-27T13:15:30.424Z,7.05
2022-11-27T13:18:03.425Z,6.95
2022-11-27T13:20:33.575Z,7.43
2022-11-27T13:22:59.907Z,7.80
2022-11-27T13:25:26.913Z,7.28
2022-11-27T13:27:53.669Z,7.65
2022-11-27T13:30:24.800Z,7.00
2022-11-27T13:32:53.500Z,6.72
2022-11-27T13:35:22.788Z,7.90
2022-11-27T13:37:54.028Z,7.25
2022-11-27T13:40:27.138Z,6.57
2022-11-27T13:42:55.555Z,7.03
2022-11-27T13:45:23.590Z,6.97
2022-11-27T13:47:50.242Z,7.25
2022-11-27T13:50:17.915Z,7.28
2022-11-27T13:52:57.246Z,7.45
2022-11-27T13:55:26.004Z,6.95
2022-11-27T13:57:53.250Z,8.10
2022-11-27T14:00:30.097Z,7.28
2022-11-27T14:02:56.400Z,7.68
2022-11-27T14:05:33.962Z,6.97
2022-11-27T14:08:00.471Z,7.57
2022-11-27T14:10:28.644Z,6.63
2022-11-27T14:13:05.919Z,7.68
2022-11-27T14:15:36.759Z,7.13
2022-11-27T14:18:19.374Z,7.47
2022-11-27T14:20:51.145Z,7.70
2022-11-27T14:23:34.274Z,7.43
2022-11-27T14:26:05.065Z,7.95
2022-11-27T14:28:32.400Z,8.13
2022-11-27T14:31:00.103Z,8.60
2022-11-27T14:33:31.227Z,8.23
2022-11-27T14:35:58.857Z,8.85
2022-11-27T14:38:25.917Z,8.18
2022-11-27T14:40:55.773Z,8.25
2022-11-27T14:43:26.231Z,8.52
2022-11-27T14:45:54.082Z,8.15
2022-11-27T14:48:22.731Z,8.68
2022-11-27T14:50:49.781Z,8.50
2022-11-27T14:53:17.142Z,9.35
2022-11-27T14:55:43.605Z,10.98
2022-11-27T14:58:15.213Z,8.88
2022-11-27T15:00:50.357Z,9.93
2022-11-27T15:03:17.712Z,9.13
2022-11-27T15:05:51.394Z,9.55
2022-11-27T15:08:18.369Z,8.73
2022-11-27T15:10:44.920Z,8.73
2022-11-27T15:13:21.291Z,10.13
2022-11-27T15:15:53.411Z,9.35
2022-11-27T15:18:23.082Z,8.45
2022-11-27T15:20:49.742Z,8.98
2022-11-27T15:23:24.723Z,10.40
2022-11-27T15:26:15.825Z,9.32
2022-11-27T15:28:51.307Z,8.60
2022-11-27T15:31:35.182Z,9.05
2022-11-27T15:34:13.487Z,8.60
2022-11-27T15:36:41.929Z,8.32
2022-11-27T15:39:11.032Z,10.13
2022-11-27T15:41:42.318Z,8.82
2022-11-27T15:44:09.867Z,9.25
2022-11-27T15:46:36.221Z,7.93
2022-11-27T15:49:02.506Z,8.52
2022-11-27T15:51:30.121Z,9.00
2022-11-27T15:53:56.383Z,8.98
2022-11-27T15:56:22.692Z,9.30
2022-11-27T15:58:49.040Z,8.00
2022-11-27T16:01:15.390Z,9.73
2022-11-27T16:03:41.855Z,7.57
2022-11-27T16:06:08.857Z,8.38
2022-11-27T16:08:35.232Z,9.15
2022-11-27T16:11:03.249Z,11.00
2022-11-27T16:13:29.836Z,8.10
2022-11-27T16:16:00.746Z,7.93
2022-11-27T16:18:27.885Z,8.45
2022-11-27T16:20:54.481Z,8.68
2022-11-27T16:23:20.896Z,9.15
2022-11-27T16:25:47.244Z,7.43
2022-11-27T16:28:13.565Z,7.38
2022-11-27T16:30:42.075Z,7.60
2022-11-27T16:33:08.581Z,7.43
2022-11-27T16:35:36.070Z,8.32
2022-11-27T16:38:02.535Z,7.32
2022-11-27T16:40:28.833Z,8.10
2022-11-27T16:42:55.144Z,7.03
2022-11-27T16:45:22.036Z,7.28
2022-11-27T16:47:48.943Z,7.70
2022-11-27T16:50:16.198Z,7.20
2022-11-27T16:52:42.996Z,9.45
2022-11-27T16:55:09.928Z,7.32
2022-11-27T16:57:37.388Z,7.97
2022-11-27T17:00:04.384Z,8.23
2022-11-27T17:02:31.024Z,8.38
2022-11-27T17:04:57.507Z,7.60
2022-11-27T17:07:23.924Z,10.90
2022-11-27T17:09:50.330Z,9.15
2022-11-27T17:12:16.683Z,7.53
2022-11-27T17:14:43.538Z,8.18
2022-11-27T17:17:10.160Z,9.27
2022-11-27T17:19:36.575Z,9.10
2022-11-27T17:22:02.946Z,7.68
2022-11-27T17:24:35.724Z,7.80
2022-11-27T17:27:05.023Z,7.35
2022-11-27T17:29:37.858Z,6.43
2022-11-27T17:32:07.209Z,36.83
2022-11-27T17:34:33.855Z,7.95
2022-11-27T17:37:02.680Z,6.60
2022-11-27T17:39:29.564Z,7.57
2022-11-27T17:41:55.903Z,7.68
2022-11-27T17:44:22.224Z,6.80
2022-11-27T17:46:50.482Z,8.07
2022-11-27T17:49:19.318Z,7.90
2022-11-27T17:51:47.215Z,7.88
2022-11-27T17:54:14.021Z,9.63
2022-11-27T17:56:40.501Z,8.35
2022-11-27T17:59:08.837Z,8.25
2022-11-27T18:01:35.339Z,8.05
2022-11-27T18:04:04.318Z,7.28
2022-11-27T18:06:31.843Z,7.97
2022-11-27T18:08:59.002Z,7.40
2022-11-27T18:11:27.625Z,7.43
2022-11-27T18:13:55.826Z,8.98
2022-11-27T18:16:24.519Z,8.02
2022-11-27T18:18:51.389Z,8.05
2022-11-27T18:21:19.022Z,8.27
2022-11-27T18:24:20.723Z,7.55
2022-11-27T18:27:00.322Z,6.88
2022-11-27T18:29:20.473Z,7.40
2022-11-27T18:31:47.515Z,27.50
2022-11-27T18:34:13.916Z,11.20
2022-11-27T18:36:40.259Z,9.25
2022-11-27T18:39:06.590Z,11.15
2022-11-27T18:41:32.976Z,9.27
2022-11-27T18:43:59.324Z,10.80
2022-11-27T18:46:25.933Z,11.93
2022-11-27T18:48:52.470Z,11.25
2022-11-27T18:51:20.451Z,9.85
2022-11-27T18:53:47.860Z,10.57
2022-11-27T18:56:18.714Z,10.98
2022-11-27T18:58:46.506Z,11.05
2022-11-27T19:01:17.350Z,16.48
2022-11-27T19:03:43.835Z,13.40
2022-11-27T19:06:11.630Z,13.73
2022-11-27T19:08:38.257Z,14.05
2022-11-27T19:11:06.801Z,11.55
2022-11-27T19:13:33.541Z,10.90
2022-11-27T19:15:59.962Z,12.32
2022-11-27T19:18:26.986Z,10.15
2022-11-27T19:20:54.985Z,10.50
2022-11-27T19:23:22.228Z,10.38
2022-11-27T19:25:48.875Z,10.60
2022-11-27T19:28:15.248Z,10.32
2022-11-27T19:30:42.481Z,11.65
2022-11-27T19:33:09.042Z,12.73
2022-11-27T19:35:35.686Z,9.90
2022-11-27T19:38:02.392Z,11.23
2022-11-27T19:40:30.556Z,10.82
2022-11-27T19:43:01.051Z,11.15
2022-11-27T19:45:28.026Z,10.55
2022-11-27T19:47:54.433Z,10.70
2022-11-27T19:50:22.529Z,9.80
2022-11-27T19:52:49.283Z,11.50
2022-11-27T19:55:15.769Z,10.13
2022-11-27T19:57:42.299Z,10.57
2022-11-27T20:00:09.171Z,11.40
2022-11-27T20:02:41.429Z,11.15
2022-11-27T20:05:08.084Z,10.85
2022-11-27T20:07:34.834Z,11.57
2022-11-27T20:10:01.945Z,10.85
2022-11-27T20:12:28.354Z,11.30
2022-11-27T20:14:54.920Z,11.75
2022-11-27T20:17:21.751Z,11.55
2022-11-27T20:19:48.103Z,10.88
2022-11-27T20:22:14.587Z,11.82
2022-11-27T20:25:03.992Z,12.23
2022-11-27T20:27:27.977Z,11.48
2022-11-27T20:29:59.855Z,10.70
2022-11-27T20:32:26.251Z,10.50
2022-11-27T20:34:53.287Z,14.43
2022-11-27T20:37:19.591Z,11.00
2022-11-27T20:39:46.161Z,12.35
2022-11-27T20:42:12.515Z,11.60
2022-11-27T20:44:39.483Z,11.45
2022-11-27T20:47:07.153Z,10.95
2022-11-27T20:49:33.866Z,11.52
2022-11-27T20:52:03.413Z,11.68
2022-11-27T20:54:30.033Z,10.88
2022-11-27T20:56:57.052Z,10.73
2022-11-27T20:59:23.540Z,11.27
2022-11-27T21:01:50.211Z,10.07
2022-11-27T21:04:19.325Z,13.13
2022-11-27T21:06:46.228Z,14.18
2022-11-27T21:09:13.949Z,12.23
2022-11-27T21:11:41.104Z,12.43
2022-11-27T21:14:09.659Z,11.45
2022-11-27T21:16:39.298Z,12.65
2022-11-27T21:19:07.003Z,11.63
2022-11-27T21:21:34.032Z,11.57
2022-11-27T21:24:00.550Z,12.13
2022-11-27T21:26:27.920Z,12.30
2022-11-27T21:28:54.327Z,11.98
2022-11-27T21:31:21.996Z,11.82
2022-11-27T21:33:49.690Z,10.95
2022-11-27T21:36:16.939Z,10.38
2022-11-27T21:38:43.400Z,12.30
2022-11-27T21:41:13.930Z,12.38
2022-11-27T21:43:41.237Z,10.57
2022-11-27T21:46:08.055Z,11.73
2022-11-27T21:48:34.562Z,11.20
2022-11-27T21:51:02.040Z,11.20
2022-11-27T21:53:30.747Z,11.23
2022-11-27T21:55:57.557Z,11.63
2022-11-27T21:58:23.898Z,12.30
2022-11-27T22:00:50.857Z,11.23
2022-11-27T22:03:17.245Z,10.73
2022-11-27T22:05:43.590Z,11.30
2022-11-27T22:08:09.968Z,11.02
2022-11-27T22:10:39.074Z,11.88
2022-11-27T22:13:05.435Z,11.38
2022-11-27T22:15:31.725Z,11.27
2022-11-27T22:17:59.371Z,11.68
2022-11-27T22:20:25.831Z,10.95
2022-11-27T22:22:52.793Z,10.35
2022-11-27T22:25:19.284Z,10.70
2022-11-27T22:27:45.691Z,10.80
2022-11-27T22:30:12.509Z,11.88
2022-11-27T22:32:38.902Z,10.98
2022-11-27T22:35:05.424Z,10.75
2022-11-27T22:37:32.070Z,10.20
2022-11-27T22:39:59.261Z,10.95
2022-11-27T22:42:25.604Z,10.27
2022-11-27T22:44:52.053Z,10.43
2022-11-27T22:47:18.568Z,11.75
2022-11-27T22:49:44.920Z,10.45
2022-11-27T22:52:11.600Z,10.63
2022-11-27T22:54:37.937Z,11.00
2022-11-27T22:57:04.272Z,11.27
2022-11-27T22:59:32.751Z,12.38
2022-11-27T23:02:00.091Z,11.90
2022-11-27T23:04:27.044Z,10.43
2022-11-27T23:06:53.448Z,11.90
2022-11-27T23:09:19.889Z,11.68
2022-11-27T23:11:46.685Z,11.57
2022-11-27T23:14:13.374Z,11.02
2022-11-27T23:16:39.881Z,12.07
2022-11-27T23:19:06.409Z,12.98
2022-11-27T23:21:35.733Z,11.30
2022-11-27T23:24:02.080Z,11.85
2022-11-27T23:26:28.435Z,12.07
2022-11-27T23:28:54.997Z,12.48
2022-11-27T23:31:29.818Z,11.32
2022-11-27T23:33:56.546Z,11.75
2022-11-27T23:36:22.941Z,12.85
2022-11-27T23:38:49.377Z,11.85
2022-11-27T23:41:33.764Z,12.55
2022-11-27T23:44:01.349Z,13.00
2022-11-27T23:46:28.352Z,12.95
2022-11-27T23:48:55.607Z,14.85
2022-11-27T23:51:24.477Z,15.43
2022-11-27T23:53:50.845Z,15.82
2022-11-27T23:56:21.708Z,17.20
2022-11-27T23:58:48.164Z,16.50
